createdAt,value
2019-01-24T00:00:44.653Z,-2.00
2019-01-24T00:03:18.129Z,-1.90
2019-01-24T00:05:51.553Z,-1.83
2019-01-24T00:08:25.366Z,-1.92
2019-01-24T00:10:58.781Z,-1.99
2019-01-24T00:13:32.167Z,-2.02
2019-01-24T00:16:05.612Z,-2.10
2019-01-24T00:18:39.037Z,-2.12
2019-01-24T00:21:12.549Z,-2.20
2019-01-24T00:23:46.082Z,-2.10
2019-01-24T00:26:19.484Z,-2.13
2019-01-24T00:28:53.369Z,-2.03
2019-01-24T00:31:26.766Z,-2.31
2019-01-24T00:34:00.131Z,-2.16
2019-01-24T00:36:33.481Z,-2.34
2019-01-24T00:39:08.420Z,-2.14
2019-01-24T00:41:41.748Z,-2.17
2019-01-24T00:44:15.125Z,-2.02
2019-01-24T00:46:48.452Z,-1.96
2019-01-24T00:49:21.819Z,-1.98
2019-01-24T00:51:55.154Z,-2.35
2019-01-24T00:54:28.606Z,-2.27
2019-01-24T00:57:01.979Z,-2.22
2019-01-24T00:59:35.412Z,-2.11
2019-01-24T01:02:08.746Z,-2.03
2019-01-24T01:04:42.195Z,-1.95
2019-01-24T01:07:15.595Z,-1.90
2019-01-24T01:09:48.961Z,-1.87
2019-01-24T01:12:22.368Z,-2.05
2019-01-24T01:14:56.235Z,-2.08
2019-01-24T01:17:29.715Z,-1.99
2019-01-24T01:20:04.332Z,-1.88
2019-01-24T01:22:37.841Z,-1.83
2019-01-24T01:25:12.562Z,-1.80
2019-01-24T01:27:46.031Z,-1.82
2019-01-24T01:30:21.853Z,-1.84
2019-01-24T01:32:55.251Z,-1.73
2019-01-24T01:35:28.690Z,-1.69
2019-01-24T01:38:02.030Z,-1.71
2019-01-24T01:40:35.838Z,-1.92
2019-01-24T01:43:09.244Z,-2.03
2019-01-24T01:45:42.668Z,-2.04
2019-01-24T01:48:15.996Z,-2.13
2019-01-24T01:50:49.434Z,-2.12
2019-01-24T01:53:22.757Z,-1.98
2019-01-24T01:55:56.453Z,-2.07
2019-01-24T01:58:29.794Z,-2.36
2019-01-24T02:01:03.245Z,-2.41
2019-01-24T02:03:36.646Z,-2.38
2019-01-24T02:06:10.072Z,-2.16
2019-01-24T02:08:43.404Z,-2.07
2019-01-24T02:11:16.764Z,-1.89
2019-01-24T02:13:50.093Z,-1.97
2019-01-24T02:16:23.525Z,-1.89
2019-01-24T02:18:56.928Z,-1.80
2019-01-24T02:21:30.773Z,-1.72
2019-01-24T02:24:04.241Z,-1.67
2019-01-24T02:26:37.691Z,-1.62
2019-01-24T02:29:11.027Z,-1.85
2019-01-24T02:31:44.495Z,-1.71
2019-01-24T02:34:17.948Z,-1.60
2019-01-24T02:36:51.367Z,-1.57
2019-01-24T02:39:24.823Z,-1.50
2019-01-24T02:41:58.168Z,-1.44
2019-01-24T02:44:31.624Z,-1.40
2019-01-24T02:47:05.057Z,-1.34
2019-01-24T02:49:38.515Z,-1.27
2019-01-24T02:52:11.941Z,-1.25
2019-01-24T02:54:45.687Z,-1.24
2019-01-24T02:57:19.102Z,-1.20
2019-01-24T02:59:52.576Z,-1.17
2019-01-24T03:02:25.997Z,-1.11
2019-01-24T03:04:59.443Z,-1.09
2019-01-24T03:07:32.879Z,-1.12
2019-01-24T03:10:09.556Z,-1.10
2019-01-24T03:12:42.975Z,-1.05
2019-01-24T03:15:21.273Z,-1.48
2019-01-24T03:17:54.697Z,-1.43
2019-01-24T03:20:28.144Z,-1.42
2019-01-24T03:23:01.639Z,-1.37
2019-01-24T03:25:35.167Z,-1.56
2019-01-24T03:28:08.595Z,-1.55
2019-01-24T03:30:42.069Z,-1.81
2019-01-24T03:33:15.501Z,-1.74
2019-01-24T03:35:48.948Z,-1.65
2019-01-24T03:38:22.435Z,-1.47
2019-01-24T03:40:55.975Z,-1.40
2019-01-24T03:43:29.400Z,-1.33
2019-01-24T03:46:02.955Z,-1.25
2019-01-24T03:48:36.403Z,-1.18
2019-01-24T03:51:09.794Z,-1.22
2019-01-24T03:53:43.208Z,-1.39
2019-01-24T03:56:16.680Z,-1.38
2019-01-24T03:58:50.092Z,-1.44
2019-01-24T04:01:23.630Z,-1.34
2019-01-24T04:03:56.979Z,-1.63
2019-01-24T04:06:30.433Z,-1.79
2019-01-24T04:09:05.221Z,-1.56
2019-01-24T04:11:38.672Z,-1.56
2019-01-24T04:14:12.093Z,-1.78
2019-01-24T04:16:45.621Z,-1.55
2019-01-24T04:19:20.361Z,-1.34
2019-01-24T04:21:53.815Z,-1.38
2019-01-24T04:24:27.159Z,-1.24
2019-01-24T04:27:00.607Z,-1.16
2019-01-24T04:29:34.039Z,-1.16
2019-01-24T04:32:07.508Z,-1.28
2019-01-24T04:34:40.931Z,-1.20
2019-01-24T04:37:14.333Z,-1.14
2019-01-24T04:39:47.812Z,-1.20
2019-01-24T04:42:21.290Z,-1.14
2019-01-24T04:44:54.699Z,-1.07
2019-01-24T04:47:28.169Z,-1.08
2019-01-24T04:50:01.594Z,-1.08
2019-01-24T04:52:35.104Z,-1.23
2019-01-24T04:55:11.633Z,-1.11
2019-01-24T04:57:45.184Z,-0.99
2019-01-24T05:00:27.048Z,-1.00
2019-01-24T05:03:00.583Z,-1.11
2019-01-24T05:05:34.019Z,-1.00
2019-01-24T05:08:07.469Z,-1.07
2019-01-24T05:10:40.845Z,-1.07
2019-01-24T05:13:14.318Z,-1.02
2019-01-24T05:15:47.735Z,-0.97
2019-01-24T05:18:21.212Z,-0.93
2019-01-24T05:20:54.634Z,-0.94
2019-01-24T05:23:28.101Z,-1.04
2019-01-24T05:26:01.524Z,-0.98
2019-01-24T05:28:35.247Z,-0.96
2019-01-24T05:31:08.690Z,-0.97
2019-01-24T05:33:42.454Z,-1.04
2019-01-24T05:36:15.959Z,-1.12
2019-01-24T05:38:49.415Z,-0.96
2019-01-24T05:41:22.841Z,-0.90
2019-01-24T05:43:56.293Z,-0.90
2019-01-24T05:46:29.792Z,-0.80
2019-01-24T05:49:03.664Z,-0.84
2019-01-24T05:51:37.158Z,-0.76
2019-01-24T05:54:10.626Z,-0.70
2019-01-24T05:56:44.107Z,-0.69
2019-01-24T05:59:17.576Z,-0.91
2019-01-24T06:01:51.574Z,-0.80
2019-01-24T06:04:25.053Z,-0.85
2019-01-24T06:06:58.539Z,-0.75
2019-01-24T06:09:32.413Z,-0.70
2019-01-24T06:12:05.806Z,-0.69
2019-01-24T06:14:39.271Z,-0.79
2019-01-24T06:17:12.681Z,-0.79
2019-01-24T06:19:46.068Z,-0.69
2019-01-24T06:22:19.484Z,-1.01
2019-01-24T06:24:52.941Z,-0.76
2019-01-24T06:27:26.355Z,-0.69
2019-01-24T06:29:59.812Z,-0.59
2019-01-24T06:32:33.233Z,-0.59
2019-01-24T06:35:06.876Z,-0.74
2019-01-24T06:37:40.306Z,-0.66
2019-01-24T06:40:15.632Z,-0.54
2019-01-24T06:42:49.132Z,-0.44
2019-01-24T06:45:23.345Z,-0.68
2019-01-24T06:47:56.771Z,-0.64
2019-01-24T06:50:30.156Z,-0.58
2019-01-24T06:53:03.581Z,-0.58
2019-01-24T06:55:37.180Z,-0.83
2019-01-24T06:58:10.601Z,-0.72
2019-01-24T07:00:44.061Z,-0.64
2019-01-24T07:03:17.476Z,-0.46
2019-01-24T07:05:55.321Z,-0.37
2019-01-24T07:08:26.647Z,-0.32
2019-01-24T07:11:00.102Z,-0.33
2019-01-24T07:13:33.521Z,-0.25
2019-01-24T07:16:06.983Z,-0.19
2019-01-24T07:18:40.472Z,-0.26
2019-01-24T07:21:13.951Z,-0.22
2019-01-24T07:23:47.366Z,-0.25
2019-01-24T07:26:20.898Z,-0.21
2019-01-24T07:28:54.260Z,-0.16
2019-01-24T07:31:27.794Z,-0.13
2019-01-24T07:34:01.139Z,-0.08
2019-01-24T07:36:34.609Z,-0.07
2019-01-24T07:39:08.434Z,-0.04
2019-01-24T07:41:41.906Z,-0.18
2019-01-24T07:44:15.332Z,-0.09
2019-01-24T07:46:48.729Z,-0.01
2019-01-24T07:49:22.074Z,0.06
2019-01-24T07:51:55.613Z,0.11
2019-01-24T07:54:28.961Z,0.15
2019-01-24T07:57:02.423Z,-0.04
2019-01-24T07:59:35.839Z,-0.27
2019-01-24T08:02:09.293Z,-0.62
2019-01-24T08:04:42.720Z,-0.50
2019-01-24T08:07:16.123Z,-0.28
2019-01-24T08:09:49.542Z,-0.12
2019-01-24T08:12:23.075Z,-0.02
2019-01-24T08:14:56.565Z,0.06
2019-01-24T08:17:30.013Z,0.12
2019-01-24T08:20:04.799Z,0.22
2019-01-24T08:22:38.329Z,0.28
2019-01-24T08:25:11.812Z,0.34
2019-01-24T08:27:45.431Z,0.33
2019-01-24T08:30:38.134Z,0.40
2019-01-24T08:33:11.581Z,0.36
2019-01-24T08:35:45.067Z,0.25
2019-01-24T08:38:18.609Z,0.41
2019-01-24T08:40:52.031Z,0.53
2019-01-24T08:43:25.483Z,0.41
2019-01-24T08:45:58.903Z,0.05
2019-01-24T08:48:32.428Z,-0.13
2019-01-24T08:51:05.911Z,0.07
2019-01-24T08:53:39.439Z,-0.02
2019-01-24T08:56:12.787Z,0.24
2019-01-24T08:58:46.702Z,0.30
2019-01-24T09:01:20.124Z,0.12
2019-01-24T09:03:53.588Z,0.37
2019-01-24T09:06:27.194Z,0.07
2019-01-24T09:09:00.646Z,0.23
2019-01-24T09:11:33.997Z,0.31
2019-01-24T09:14:07.529Z,0.43
2019-01-24T09:16:41.052Z,0.59
2019-01-24T09:19:14.583Z,0.74
2019-01-24T09:21:47.997Z,0.18
2019-01-24T09:24:22.311Z,0.14
2019-01-24T09:26:55.731Z,0.22
2019-01-24T09:29:29.212Z,0.40
2019-01-24T09:32:02.633Z,0.59
2019-01-24T09:34:36.213Z,0.11
2019-01-24T09:37:09.609Z,0.21
2019-01-24T09:39:43.430Z,0.12
2019-01-24T09:42:16.831Z,0.33
2019-01-24T09:44:50.391Z,0.56
2019-01-24T09:47:23.818Z,0.73
2019-01-24T09:49:57.344Z,0.74
2019-01-24T09:52:31.067Z,0.84
2019-01-24T09:55:06.578Z,0.43
2019-01-24T09:57:40.132Z,0.40
2019-01-24T10:00:19.218Z,0.69
2019-01-24T10:02:52.744Z,0.78
2019-01-24T10:05:26.285Z,0.88
2019-01-24T10:07:59.871Z,0.90
2019-01-24T10:10:33.344Z,0.59
2019-01-24T10:13:06.945Z,0.86
2019-01-24T10:15:40.416Z,0.79
2019-01-24T10:18:13.846Z,0.87
2019-01-24T10:20:47.462Z,0.92
2019-01-24T10:23:20.893Z,0.77
2019-01-24T10:25:54.771Z,0.35
2019-01-24T10:28:28.261Z,0.60
2019-01-24T10:31:01.800Z,0.69
2019-01-24T10:33:35.225Z,1.02
2019-01-24T10:36:08.789Z,1.14
2019-01-24T10:38:42.197Z,1.24
2019-01-24T10:41:15.647Z,1.22
2019-01-24T10:43:49.161Z,0.72
2019-01-24T10:46:22.653Z,0.84
2019-01-24T10:48:56.158Z,1.10
2019-01-24T10:51:29.665Z,1.13
2019-01-24T10:54:03.143Z,1.16
2019-01-24T10:56:36.690Z,1.19
2019-01-24T10:59:10.109Z,1.29
2019-01-24T11:01:43.569Z,1.39
2019-01-24T11:04:17.053Z,1.58
2019-01-24T11:06:50.660Z,1.58
2019-01-24T11:09:24.079Z,1.64
2019-01-24T11:11:57.539Z,1.78
2019-01-24T11:14:30.959Z,1.78
2019-01-24T11:17:04.495Z,1.80
2019-01-24T11:19:37.910Z,1.41
2019-01-24T11:22:11.358Z,1.05
2019-01-24T11:24:44.840Z,1.10
2019-01-24T11:27:18.378Z,1.23
2019-01-24T11:29:51.800Z,1.30
2019-01-24T11:32:25.252Z,1.40
2019-01-24T11:34:58.669Z,1.04
2019-01-24T11:37:32.131Z,1.15
2019-01-24T11:40:08.739Z,1.23
2019-01-24T11:42:42.185Z,1.11
2019-01-24T11:45:17.981Z,1.16
2019-01-24T11:47:51.542Z,0.89
2019-01-24T11:50:25.008Z,1.27
2019-01-24T11:52:58.526Z,1.27
2019-01-24T11:55:32.032Z,1.20
2019-01-24T11:58:05.738Z,1.04
2019-01-24T12:00:41.175Z,1.19
2019-01-24T12:03:14.706Z,1.38
2019-01-24T12:05:48.194Z,1.37
2019-01-24T12:08:21.738Z,1.60
2019-01-24T12:10:55.176Z,1.41
2019-01-24T12:13:28.900Z,1.57
2019-01-24T12:16:02.391Z,1.50
2019-01-24T12:18:35.828Z,1.53
2019-01-24T12:21:09.254Z,1.55
2019-01-24T12:23:42.785Z,1.65
2019-01-24T12:26:16.124Z,1.67
2019-01-24T12:28:49.616Z,1.45
2019-01-24T12:31:23.129Z,1.58
2019-01-24T12:33:56.677Z,1.54
2019-01-24T12:36:30.084Z,1.46
2019-01-24T12:39:05.019Z,1.49
2019-01-24T12:41:38.442Z,1.45
2019-01-24T12:44:11.911Z,1.24
2019-01-24T12:46:45.328Z,1.45
2019-01-24T12:49:18.785Z,1.61
2019-01-24T12:51:52.271Z,1.43
2019-01-24T12:54:25.853Z,1.60
2019-01-24T12:56:59.653Z,1.55
2019-01-24T12:59:33.133Z,1.29
2019-01-24T13:02:06.625Z,1.48
2019-01-24T13:04:40.073Z,1.62
2019-01-24T13:07:18.414Z,1.57
2019-01-24T13:09:48.857Z,1.69
2019-01-24T13:12:22.211Z,1.76
2019-01-24T13:14:55.778Z,1.78
2019-01-24T13:17:29.188Z,1.76
2019-01-24T13:20:02.750Z,1.82
2019-01-24T13:22:36.174Z,1.75
2019-01-24T13:25:12.772Z,1.85
2019-01-24T13:27:46.267Z,1.73
2019-01-24T13:30:24.665Z,1.74
2019-01-24T13:32:58.155Z,1.72
2019-01-24T13:35:31.754Z,1.77
2019-01-24T13:38:05.445Z,1.69
2019-01-24T13:40:39.080Z,1.68
2019-01-24T13:43:12.506Z,1.70
2019-01-24T13:45:46.032Z,1.80
2019-01-24T13:48:19.449Z,1.68
2019-01-24T13:50:52.901Z,1.75
2019-01-24T13:53:26.402Z,1.82
2019-01-24T13:55:59.868Z,1.81
2019-01-24T13:58:33.351Z,1.86
2019-01-24T14:01:06.896Z,1.94
2019-01-24T14:03:42.167Z,1.93
2019-01-24T14:06:16.192Z,1.86
2019-01-24T14:08:49.604Z,1.92
2019-01-24T14:11:23.077Z,1.94
2019-01-24T14:13:56.433Z,1.90
2019-01-24T14:16:29.904Z,1.94
2019-01-24T14:19:03.466Z,1.78
2019-01-24T14:21:36.940Z,1.68
2019-01-24T14:24:10.367Z,1.61
2019-01-24T14:26:44.200Z,1.62
2019-01-24T14:29:17.690Z,1.69
2019-01-24T14:31:51.180Z,1.54
2019-01-24T14:34:24.610Z,1.56
2019-01-24T14:36:58.148Z,1.70
2019-01-24T14:39:31.572Z,1.75
2019-01-24T14:42:05.106Z,1.75
2019-01-24T14:44:38.532Z,1.74
2019-01-24T14:47:11.993Z,1.74
2019-01-24T14:49:45.411Z,1.73
2019-01-24T14:52:18.884Z,1.78
2019-01-24T14:54:52.294Z,1.86
2019-01-24T14:57:25.753Z,1.84
2019-01-24T14:59:59.314Z,1.87
2019-01-24T15:02:32.775Z,1.93
2019-01-24T15:05:09.535Z,1.86
2019-01-24T15:07:47.093Z,1.82
2019-01-24T15:10:18.515Z,1.81
2019-01-24T15:12:52.061Z,1.76
2019-01-24T15:15:25.749Z,1.76
2019-01-24T15:17:59.220Z,1.75
2019-01-24T15:20:32.566Z,1.78
2019-01-24T15:23:06.161Z,1.78
2019-01-24T15:25:39.581Z,1.78
2019-01-24T15:28:13.033Z,1.80
2019-01-24T15:30:46.458Z,1.58
2019-01-24T15:33:19.931Z,1.40
2019-01-24T15:35:53.341Z,1.48
2019-01-24T15:38:27.893Z,1.56
2019-01-24T15:41:01.341Z,1.57
2019-01-24T15:43:34.869Z,1.11
2019-01-24T15:46:08.353Z,1.31
2019-01-24T15:48:42.605Z,1.42
2019-01-24T15:51:17.518Z,1.51
2019-01-24T15:53:50.973Z,1.56
2019-01-24T15:56:24.397Z,1.63
2019-01-24T15:58:58.195Z,1.67
2019-01-24T16:01:31.698Z,1.69
2019-01-24T16:04:05.787Z,1.62
2019-01-24T16:06:39.209Z,1.53
2019-01-24T16:09:12.734Z,1.53
2019-01-24T16:11:46.163Z,1.57
2019-01-24T16:14:19.766Z,1.53
2019-01-24T16:16:53.182Z,1.43
2019-01-24T16:19:26.735Z,1.44
2019-01-24T16:22:00.180Z,1.52
2019-01-24T16:24:33.726Z,1.49
2019-01-24T16:27:07.154Z,1.47
2019-01-24T16:29:40.602Z,1.49
2019-01-24T16:32:14.045Z,1.48
2019-01-24T16:34:47.492Z,1.56
2019-01-24T16:37:20.912Z,1.62
2019-01-24T16:39:54.763Z,1.62
2019-01-24T16:42:28.203Z,1.60
2019-01-24T16:45:01.602Z,1.61
2019-01-24T16:47:35.022Z,1.65
2019-01-24T16:50:11.393Z,1.65
2019-01-24T16:52:44.912Z,1.63
2019-01-24T16:55:19.103Z,1.66
2019-01-24T16:57:53.287Z,1.70
2019-01-24T17:00:38.759Z,1.73
2019-01-24T17:03:12.244Z,1.72
2019-01-24T17:05:45.743Z,1.61
2019-01-24T17:08:19.204Z,1.64
2019-01-24T17:10:52.731Z,1.55
2019-01-24T17:13:26.161Z,1.60
2019-01-24T17:15:59.782Z,1.61
2019-01-24T17:18:34.556Z,1.60
2019-01-24T17:21:08.154Z,1.55
2019-01-24T17:23:41.645Z,1.52
2019-01-24T17:26:15.123Z,1.54
2019-01-24T17:28:49.964Z,1.57
2019-01-24T17:31:23.581Z,1.60
2019-01-24T17:33:57.070Z,1.61
2019-01-24T17:36:30.633Z,1.54
2019-01-24T17:39:05.699Z,1.51
2019-01-24T17:41:39.177Z,1.57
2019-01-24T17:44:12.734Z,1.57
2019-01-24T17:46:46.292Z,1.58
2019-01-24T17:49:19.899Z,1.63
2019-01-24T17:51:53.419Z,1.63
2019-01-24T17:54:26.902Z,1.66
2019-01-24T17:57:00.430Z,1.70
2019-01-24T17:59:33.848Z,1.70
2019-01-24T18:02:07.377Z,1.64
2019-01-24T18:04:40.871Z,1.57
2019-01-24T18:07:14.426Z,1.62
2019-01-24T18:09:48.326Z,1.62
2019-01-24T18:12:23.553Z,1.49
2019-01-24T18:14:57.065Z,1.48
2019-01-24T18:17:30.516Z,1.50
2019-01-24T18:20:06.989Z,1.56
2019-01-24T18:22:40.442Z,1.59
2019-01-24T18:25:13.924Z,1.63
2019-01-24T18:27:47.512Z,1.67
2019-01-24T18:30:23.328Z,1.66
2019-01-24T18:32:57.117Z,1.68
2019-01-24T18:35:30.533Z,1.70
2019-01-24T18:38:04.531Z,1.70
2019-01-24T18:40:38.280Z,1.74
2019-01-24T18:43:15.262Z,1.72
2019-01-24T18:45:51.357Z,1.72
2019-01-24T18:48:25.243Z,1.72
2019-01-24T18:50:58.831Z,1.72
2019-01-24T18:53:32.537Z,1.72
2019-01-24T18:56:06.018Z,1.68
2019-01-24T18:58:39.605Z,1.66
2019-01-24T19:01:13.103Z,1.58
2019-01-24T19:03:46.594Z,1.43
2019-01-24T19:06:20.093Z,1.50
2019-01-24T19:08:53.677Z,1.53
2019-01-24T19:11:27.127Z,1.31
2019-01-24T19:14:00.594Z,1.35
2019-01-24T19:16:34.081Z,1.43
2019-01-24T19:19:07.621Z,1.53
2019-01-24T19:21:41.120Z,1.56
2019-01-24T19:24:14.664Z,1.60
2019-01-24T19:26:48.157Z,1.60
2019-01-24T19:29:22.121Z,1.43
2019-01-24T19:31:55.560Z,1.17
2019-01-24T19:34:29.118Z,1.24
2019-01-24T19:37:02.604Z,1.35
2019-01-24T19:39:36.448Z,1.47
2019-01-24T19:42:09.939Z,1.52
2019-01-24T19:44:43.588Z,1.53
2019-01-24T19:47:16.993Z,1.55
2019-01-24T19:49:50.449Z,1.57
2019-01-24T19:52:23.954Z,1.58
2019-01-24T19:54:57.510Z,1.59
2019-01-24T19:57:30.930Z,1.59
2019-01-24T20:00:07.498Z,1.57
2019-01-24T20:02:40.915Z,1.43
2019-01-24T20:05:16.627Z,1.23
2019-01-24T20:07:50.285Z,1.10
2019-01-24T20:10:25.814Z,1.16
2019-01-24T20:12:59.376Z,1.11
2019-01-24T20:15:33.958Z,1.24
2019-01-24T20:18:07.844Z,1.35
2019-01-24T20:20:41.371Z,1.30
2019-01-24T20:23:14.862Z,1.23
2019-01-24T20:25:48.401Z,1.26
2019-01-24T20:28:21.763Z,1.09
2019-01-24T20:30:55.326Z,1.23
2019-01-24T20:33:28.815Z,1.17
2019-01-24T20:36:02.308Z,1.23
2019-01-24T20:38:35.737Z,1.30
2019-01-24T20:41:09.335Z,1.38
2019-01-24T20:43:42.845Z,1.45
2019-01-24T20:46:16.349Z,1.49
2019-01-24T20:48:49.789Z,1.37
2019-01-24T20:51:23.256Z,1.35
2019-01-24T20:53:56.668Z,1.35
2019-01-24T20:56:30.120Z,1.37
2019-01-24T20:59:03.765Z,1.39
2019-01-24T21:01:37.297Z,1.40
2019-01-24T21:04:10.719Z,1.46
2019-01-24T21:06:44.092Z,1.39
2019-01-24T21:09:17.582Z,1.38
2019-01-24T21:11:51.438Z,1.46
2019-01-24T21:14:24.925Z,1.50
2019-01-24T21:16:58.491Z,1.54
2019-01-24T21:19:31.827Z,1.55
2019-01-24T21:22:07.216Z,1.52
2019-01-24T21:24:40.591Z,1.53
2019-01-24T21:27:14.047Z,1.36
2019-01-24T21:29:47.466Z,1.41
2019-01-24T21:32:21.038Z,1.47
2019-01-24T21:34:54.523Z,1.40
2019-01-24T21:37:27.911Z,1.42
2019-01-24T21:40:01.346Z,1.45
2019-01-24T21:42:34.818Z,1.49
2019-01-24T21:45:14.232Z,1.40
2019-01-24T21:47:47.760Z,1.42
2019-01-24T21:50:23.350Z,1.38
2019-01-24T21:52:56.798Z,1.39
2019-01-24T21:55:30.593Z,1.38
2019-01-24T21:58:04.719Z,1.40
2019-01-24T22:00:38.312Z,1.39
2019-01-24T22:03:11.905Z,1.42
2019-01-24T22:05:45.281Z,1.46
2019-01-24T22:08:18.733Z,1.43
2019-01-24T22:10:52.241Z,1.42
2019-01-24T22:13:25.854Z,1.43
2019-01-24T22:15:59.272Z,1.41
2019-01-24T22:18:32.747Z,1.40
2019-01-24T22:21:06.540Z,1.39
2019-01-24T22:23:39.996Z,1.39
2019-01-24T22:26:13.444Z,1.42
2019-01-24T22:28:47.005Z,1.41
2019-01-24T22:31:20.486Z,1.41
2019-01-24T22:33:54.351Z,1.38
2019-01-24T22:36:27.768Z,1.35
2019-01-24T22:39:01.294Z,1.34
2019-01-24T22:41:34.647Z,1.33
2019-01-24T22:44:08.038Z,1.34
2019-01-24T22:46:41.453Z,1.12
2019-01-24T22:49:15.243Z,1.10
2019-01-24T22:51:48.666Z,1.12
2019-01-24T22:54:22.166Z,1.19
2019-01-24T22:56:55.578Z,1.25
2019-01-24T22:59:29.111Z,1.18
2019-01-24T23:02:02.594Z,1.23
2019-01-24T23:04:36.521Z,1.25
2019-01-24T23:07:09.961Z,1.26
2019-01-24T23:09:44.229Z,1.28
2019-01-24T23:12:17.816Z,1.29
2019-01-24T23:14:51.282Z,1.29
2019-01-24T23:17:26.307Z,1.30
2019-01-24T23:19:59.766Z,1.29
2019-01-24T23:22:33.266Z,1.18
2019-01-24T23:25:07.076Z,1.17
2019-01-24T23:27:40.621Z,1.21
2019-01-24T23:30:14.476Z,1.24
2019-01-24T23:32:47.899Z,1.24
2019-01-24T23:35:21.355Z,1.21
2019-01-24T23:37:54.953Z,1.22
2019-01-24T23:40:28.472Z,1.26
2019-01-24T23:43:01.950Z,1.25
2019-01-24T23:45:35.664Z,1.27
2019-01-24T23:48:09.160Z,1.24
2019-01-24T23:50:42.899Z,1.27
2019-01-24T23:53:16.488Z,1.26
2019-01-24T23:55:50.031Z,1.25
2019-01-24T23:58:23.545Z,1.25
